sensor_id;sensor_type;location;lat;lon;timestamp;P1;durP1;ratioP1;P2;durP2;ratioP2
22603;SDS011;11469;49.024;8.246;2024-02-04T00:02:03;17.98;;;11.32;;
22603;SDS011;11469;49.024;8.246;2024-02-04T00:04:29;20.83;;;12.45;;
22603;SDS011;11469;49.024;8.246;2024-02-04T00:06:54;22.42;;;14.05;;
22603;SDS011;11469;49.024;8.246;2024-02-04T00:09:20;21.17;;;13.77;;
22603;SDS011;11469;49.024;8.246;2024-02-04T00:11:45;19.73;;;13.00;;
22603;SDS011;11469;49.024;8.246;2024-02-04T00:14:11;25.45;;;12.38;;
22603;SDS011;11469;49.024;8.246;2024-02-04T00:16:37;17.88;;;12.35;;
22603;SDS011;11469;49.024;8.246;2024-02-04T00:19:03;17.75;;;11.60;;
22603;SDS011;11469;49.024;8.246;2024-02-04T00:21:28;16.83;;;11.40;;
22603;SDS011;11469;49.024;8.246;2024-02-04T00:23:53;18.17;;;10.77;;
22603;SDS011;11469;49.024;8.246;2024-02-04T00:26:19;14.02;;;9.98;;
22603;SDS011;11469;49.024;8.246;2024-02-04T00:28:44;17.83;;;9.13;;
22603;SDS011;11469;49.024;8.246;2024-02-04T00:31:09;14.98;;;10.32;;
22603;SDS011;11469;49.024;8.246;2024-02-04T00:33:35;16.50;;;9.82;;
22603;SDS011;11469;49.024;8.246;2024-02-04T00:36:00;14.48;;;8.90;;
22603;SDS011;11469;49.024;8.246;2024-02-04T00:38:26;13.43;;;7.82;;
22603;SDS011;11469;49.024;8.246;2024-02-04T00:40:51;11.38;;;8.23;;
22603;SDS011;11469;49.024;8.246;2024-02-04T00:43:17;12.57;;;8.20;;
22603;SDS011;11469;49.024;8.246;2024-02-04T00:45:43;12.45;;;8.18;;
22603;SDS011;11469;49.024;8.246;2024-02-04T00:48:08;13.00;;;7.30;;
22603;SDS011;11469;49.024;8.246;2024-02-04T00:50:34;13.90;;;7.72;;
22603;SDS011;11469;49.024;8.246;2024-02-04T00:52:59;12.90;;;7.88;;
22603;SDS011;11469;49.024;8.246;2024-02-04T00:55:25;11.40;;;7.47;;
22603;SDS011;11469;49.024;8.246;2024-02-04T00:57:50;9.18;;;6.75;;
22603;SDS011;11469;49.024;8.246;2024-02-04T01:00:15;14.48;;;7.60;;
22603;SDS011;11469;49.024;8.246;2024-02-04T01:02:41;10.00;;;7.05;;
22603;SDS011;11469;49.024;8.246;2024-02-04T01:05:07;11.05;;;6.90;;
22603;SDS011;11469;49.024;8.246;2024-02-04T01:07:32;9.15;;;6.80;;
22603;SDS011;11469;49.024;8.246;2024-02-04T01:09:58;10.75;;;6.78;;
22603;SDS011;11469;49.024;8.246;2024-02-04T01:12:23;11.13;;;6.20;;
22603;SDS011;11469;49.024;8.246;2024-02-04T01:14:49;12.20;;;6.75;;
22603;SDS011;11469;49.024;8.246;2024-02-04T01:17:14;9.40;;;6.32;;
22603;SDS011;11469;49.024;8.246;2024-02-04T01:19:39;10.80;;;7.10;;
22603;SDS011;11469;49.024;8.246;2024-02-04T01:22:05;8.60;;;6.15;;
22603;SDS011;11469;49.024;8.246;2024-02-04T01:24:31;10.30;;;6.55;;
22603;SDS011;11469;49.024;8.246;2024-02-04T01:26:56;9.52;;;6.45;;
22603;SDS011;11469;49.024;8.246;2024-02-04T01:29:22;9.80;;;6.05;;
22603;SDS011;11469;49.024;8.246;2024-02-04T01:31:47;7.53;;;5.20;;
22603;SDS011;11469;49.024;8.246;2024-02-04T01:34:13;9.10;;;5.47;;
22603;SDS011;11469;49.024;8.246;2024-02-04T01:36:38;11.43;;;5.88;;
22603;SDS011;11469;49.024;8.246;2024-02-04T01:39:03;11.68;;;5.78;;
22603;SDS011;11469;49.024;8.246;2024-02-04T01:41:30;7.13;;;5.43;;
22603;SDS011;11469;49.024;8.246;2024-02-04T01:43:55;7.88;;;5.40;;
22603;SDS011;11469;49.024;8.246;2024-02-04T01:46:21;12.30;;;6.38;;
22603;SDS011;11469;49.024;8.246;2024-02-04T01:48:47;8.20;;;5.75;;
22603;SDS011;11469;49.024;8.246;2024-02-04T01:51:13;7.38;;;5.80;;
22603;SDS011;11469;49.024;8.246;2024-02-04T01:53:42;11.55;;;5.97;;
22603;SDS011;11469;49.024;8.246;2024-02-04T01:56:09;9.18;;;5.75;;
22603;SDS011;11469;49.024;8.246;2024-02-04T01:58:36;10.02;;;5.38;;
22603;SDS011;11469;49.024;8.246;2024-02-04T02:01:01;9.32;;;5.93;;
22603;SDS011;11469;49.024;8.246;2024-02-04T02:03:27;10.23;;;6.65;;
22603;SDS011;11469;49.024;8.246;2024-02-04T02:05:55;10.88;;;6.50;;
22603;SDS011;11469;49.024;8.246;2024-02-04T02:08:21;13.05;;;6.50;;
22603;SDS011;11469;49.024;8.246;2024-02-04T02:10:46;10.55;;;6.43;;
22603;SDS011;11469;49.024;8.246;2024-02-04T02:13:17;9.82;;;6.25;;
22603;SDS011;11469;49.024;8.246;2024-02-04T02:15:51;11.55;;;6.68;;
22603;SDS011;11469;49.024;8.246;2024-02-04T02:18:27;9.57;;;6.70;;
22603;SDS011;11469;49.024;8.246;2024-02-04T02:21:16;12.60;;;6.55;;
22603;SDS011;11469;49.024;8.246;2024-02-04T02:26:44;7.85;;;5.82;;
22603;SDS011;11469;49.024;8.246;2024-02-04T02:29:09;9.00;;;6.00;;
22603;SDS011;11469;49.024;8.246;2024-02-04T02:31:35;9.23;;;5.93;;
22603;SDS011;11469;49.024;8.246;2024-02-04T02:34:03;9.48;;;6.75;;
22603;SDS011;11469;49.024;8.246;2024-02-04T02:36:28;8.95;;;5.88;;
22603;SDS011;11469;49.024;8.246;2024-02-04T02:38:59;8.98;;;6.15;;
22603;SDS011;11469;49.024;8.246;2024-02-04T02:41:35;9.23;;;5.10;;
22603;SDS011;11469;49.024;8.246;2024-02-04T02:44:03;13.00;;;5.78;;
22603;SDS011;11469;49.024;8.246;2024-02-04T02:46:30;9.43;;;6.10;;
22603;SDS011;11469;49.024;8.246;2024-02-04T02:48:55;8.57;;;5.50;;
22603;SDS011;11469;49.024;8.246;2024-02-04T02:51:22;7.40;;;5.28;;
22603;SDS011;11469;49.024;8.246;2024-02-04T02:53:47;7.53;;;5.43;;
22603;SDS011;11469;49.024;8.246;2024-02-04T02:56:12;6.60;;;4.95;;
22603;SDS011;11469;49.024;8.246;2024-02-04T02:58:38;6.82;;;4.68;;
22603;SDS011;11469;49.024;8.246;2024-02-04T03:01:03;8.60;;;5.10;;
22603;SDS011;11469;49.024;8.246;2024-02-04T03:03:29;8.05;;;4.82;;
22603;SDS011;11469;49.024;8.246;2024-02-04T03:05:54;6.75;;;4.88;;
22603;SDS011;11469;49.024;8.246;2024-02-04T03:08:19;7.68;;;4.97;;
22603;SDS011;11469;49.024;8.246;2024-02-04T03:10:45;8.70;;;4.60;;
22603;SDS011;11469;49.024;8.246;2024-02-04T03:13:10;7.78;;;5.00;;
22603;SDS011;11469;49.024;8.246;2024-02-04T03:15:35;6.85;;;4.60;;
22603;SDS011;11469;49.024;8.246;2024-02-04T03:18:01;6.45;;;4.55;;
22603;SDS011;11469;49.024;8.246;2024-02-04T03:20:26;5.07;;;3.90;;
22603;SDS011;11469;49.024;8.246;2024-02-04T03:22:51;5.32;;;3.78;;
22603;SDS011;11469;49.024;8.246;2024-02-04T03:25:17;6.53;;;4.50;;
22603;SDS011;11469;49.024;8.246;2024-02-04T03:27:42;6.22;;;3.85;;
22603;SDS011;11469;49.024;8.246;2024-02-04T03:30:07;5.85;;;4.07;;
22603;SDS011;11469;49.024;8.246;2024-02-04T03:32:33;10.52;;;3.92;;
22603;SDS011;11469;49.024;8.246;2024-02-04T03:35:01;5.80;;;4.00;;
22603;SDS011;11469;49.024;8.246;2024-02-04T03:37:27;6.97;;;4.07;;
22603;SDS011;11469;49.024;8.246;2024-02-04T03:39:53;6.82;;;4.18;;
22603;SDS011;11469;49.024;8.246;2024-02-04T03:42:18;7.82;;;4.38;;
22603;SDS011;11469;49.024;8.246;2024-02-04T03:44:46;6.65;;;3.85;;
22603;SDS011;11469;49.024;8.246;2024-02-04T03:47:12;10.13;;;6.07;;
22603;SDS011;11469;49.024;8.246;2024-02-04T03:49:37;7.32;;;4.05;;
22603;SDS011;11469;49.024;8.246;2024-02-04T03:52:03;6.60;;;3.75;;
22603;SDS011;11469;49.024;8.246;2024-02-04T03:54:28;6.32;;;3.97;;
22603;SDS011;11469;49.024;8.246;2024-02-04T03:56:54;6.28;;;3.70;;
22603;SDS011;11469;49.024;8.246;2024-02-04T03:59:19;6.85;;;4.20;;
22603;SDS011;11469;49.024;8.246;2024-02-04T04:01:48;7.75;;;4.50;;
22603;SDS011;11469;49.024;8.246;2024-02-04T04:04:14;8.27;;;3.78;;
22603;SDS011;11469;49.024;8.246;2024-02-04T04:06:40;6.18;;;4.35;;
22603;SDS011;11469;49.024;8.246;2024-02-04T04:09:06;6.82;;;3.80;;
22603;SDS011;11469;49.024;8.246;2024-02-04T04:11:32;5.70;;;3.97;;
22603;SDS011;11469;49.024;8.246;2024-02-04T04:13:57;6.85;;;4.20;;
22603;SDS011;11469;49.024;8.246;2024-02-04T04:16:24;8.68;;;4.22;;
22603;SDS011;11469;49.024;8.246;2024-02-04T04:18:49;6.15;;;4.05;;
22603;SDS011;11469;49.024;8.246;2024-02-04T04:21:15;9.07;;;4.55;;
22603;SDS011;11469;49.024;8.246;2024-02-04T04:23:41;6.13;;;4.28;;
22603;SDS011;11469;49.024;8.246;2024-02-04T04:26:06;6.43;;;3.95;;
22603;SDS011;11469;49.024;8.246;2024-02-04T04:28:31;6.28;;;4.00;;
22603;SDS011;11469;49.024;8.246;2024-02-04T04:30:57;5.63;;;3.78;;
22603;SDS011;11469;49.024;8.246;2024-02-04T04:33:22;6.05;;;4.20;;
22603;SDS011;11469;49.024;8.246;2024-02-04T04:35:48;10.60;;;4.18;;
22603;SDS011;11469;49.024;8.246;2024-02-04T04:38:13;7.93;;;4.80;;
22603;SDS011;11469;49.024;8.246;2024-02-04T04:40:38;8.07;;;4.07;;
22603;SDS011;11469;49.024;8.246;2024-02-04T04:43:05;6.65;;;4.45;;
22603;SDS011;11469;49.024;8.246;2024-02-04T04:45:31;6.88;;;4.25;;
22603;SDS011;11469;49.024;8.246;2024-02-04T04:47:57;6.72;;;4.18;;
22603;SDS011;11469;49.024;8.246;2024-02-04T04:50:22;8.65;;;4.13;;
22603;SDS011;11469;49.024;8.246;2024-02-04T04:52:48;8.40;;;4.50;;
22603;SDS011;11469;49.024;8.246;2024-02-04T04:55:13;9.48;;;4.43;;
22603;SDS011;11469;49.024;8.246;2024-02-04T04:57:39;6.70;;;4.43;;
22603;SDS011;11469;49.024;8.246;2024-02-04T05:00:05;6.90;;;4.28;;
22603;SDS011;11469;49.024;8.246;2024-02-04T05:02:34;6.10;;;4.03;;
22603;SDS011;11469;49.024;8.246;2024-02-04T05:05:03;7.68;;;4.82;;
22603;SDS011;11469;49.024;8.246;2024-02-04T05:07:28;6.82;;;4.15;;
22603;SDS011;11469;49.024;8.246;2024-02-04T05:09:54;7.90;;;4.47;;
22603;SDS011;11469;49.024;8.246;2024-02-04T05:12:19;9.30;;;5.20;;
22603;SDS011;11469;49.024;8.246;2024-02-04T05:14:45;7.28;;;4.68;;
22603;SDS011;11469;49.024;8.246;2024-02-04T05:17:10;7.93;;;3.95;;
22603;SDS011;11469;49.024;8.246;2024-02-04T05:19:35;6.90;;;3.92;;
22603;SDS011;11469;49.024;8.246;2024-02-04T05:22:01;7.45;;;4.70;;
22603;SDS011;11469;49.024;8.246;2024-02-04T05:24:28;7.60;;;4.68;;
22603;SDS011;11469;49.024;8.246;2024-02-04T05:26:53;8.07;;;4.78;;
22603;SDS011;11469;49.024;8.246;2024-02-04T05:29:19;6.18;;;4.10;;
22603;SDS011;11469;49.024;8.246;2024-02-04T05:31:44;9.45;;;4.70;;
22603;SDS011;11469;49.024;8.246;2024-02-04T05:34:10;7.15;;;4.32;;
22603;SDS011;11469;49.024;8.246;2024-02-04T05:36:36;7.03;;;4.97;;
22603;SDS011;11469;49.024;8.246;2024-02-04T05:39:11;7.13;;;4.80;;
22603;SDS011;11469;49.024;8.246;2024-02-04T05:41:37;11.15;;;5.15;;
22603;SDS011;11469;49.024;8.246;2024-02-04T05:44:03;6.50;;;4.45;;
22603;SDS011;11469;49.024;8.246;2024-02-04T05:46:29;7.30;;;4.35;;
22603;SDS011;11469;49.024;8.246;2024-02-04T05:48:54;6.25;;;4.68;;
22603;SDS011;11469;49.024;8.246;2024-02-04T05:51:20;8.35;;;4.80;;
22603;SDS011;11469;49.024;8.246;2024-02-04T05:53:45;8.35;;;5.20;;
22603;SDS011;11469;49.024;8.246;2024-02-04T05:56:11;6.32;;;4.78;;
22603;SDS011;11469;49.024;8.246;2024-02-04T05:58:36;11.05;;;4.95;;
22603;SDS011;11469;49.024;8.246;2024-02-04T06:01:02;10.57;;;4.70;;
22603;SDS011;11469;49.024;8.246;2024-02-04T06:03:28;9.57;;;4.47;;
22603;SDS011;11469;49.024;8.246;2024-02-04T06:05:53;7.35;;;4.28;;
22603;SDS011;11469;49.024;8.246;2024-02-04T06:08:18;10.02;;;4.28;;
22603;SDS011;11469;49.024;8.246;2024-02-04T06:10:44;6.75;;;4.57;;
22603;SDS011;11469;49.024;8.246;2024-02-04T06:13:09;7.40;;;4.70;;
22603;SDS011;11469;49.024;8.246;2024-02-04T06:15:34;9.10;;;5.18;;
22603;SDS011;11469;49.024;8.246;2024-02-04T06:18:00;10.10;;;4.97;;
22603;SDS011;11469;49.024;8.246;2024-02-04T06:20:26;7.57;;;4.53;;
22603;SDS011;11469;49.024;8.246;2024-02-04T06:22:52;7.88;;;5.05;;
22603;SDS011;11469;49.024;8.246;2024-02-04T06:25:17;10.38;;;4.75;;
22603;SDS011;11469;49.024;8.246;2024-02-04T06:27:42;9.60;;;5.35;;
22603;SDS011;11469;49.024;8.246;2024-02-04T06:30:08;6.45;;;4.72;;
22603;SDS011;11469;49.024;8.246;2024-02-04T06:32:34;6.72;;;4.03;;
22603;SDS011;11469;49.024;8.246;2024-02-04T06:34:59;10.98;;;4.93;;
22603;SDS011;11469;49.024;8.246;2024-02-04T06:37:24;7.03;;;4.70;;
22603;SDS011;11469;49.024;8.246;2024-02-04T06:39:51;6.93;;;4.43;;
22603;SDS011;11469;49.024;8.246;2024-02-04T06:42:17;6.88;;;4.18;;
22603;SDS011;11469;49.024;8.246;2024-02-04T06:44:46;10.38;;;3.95;;
22603;SDS011;11469;49.024;8.246;2024-02-04T06:47:11;8.20;;;4.03;;
22603;SDS011;11469;49.024;8.246;2024-02-04T06:49:39;5.63;;;3.60;;
22603;SDS011;11469;49.024;8.246;2024-02-04T06:52:08;5.15;;;3.50;;
22603;SDS011;11469;49.024;8.246;2024-02-04T06:54:33;4.68;;;3.15;;
22603;SDS011;11469;49.024;8.246;2024-02-04T06:56:59;7.75;;;3.40;;
22603;SDS011;11469;49.024;8.246;2024-02-04T06:59:24;4.65;;;3.38;;
22603;SDS011;11469;49.024;8.246;2024-02-04T07:01:49;5.60;;;3.80;;
22603;SDS011;11469;49.024;8.246;2024-02-04T07:04:15;5.90;;;3.78;;
22603;SDS011;11469;49.024;8.246;2024-02-04T07:06:40;4.75;;;3.17;;
22603;SDS011;11469;49.024;8.246;2024-02-04T07:09:05;6.05;;;3.70;;
22603;SDS011;11469;49.024;8.246;2024-02-04T07:11:32;5.07;;;3.67;;
22603;SDS011;11469;49.024;8.246;2024-02-04T07:13:57;7.45;;;3.70;;
22603;SDS011;11469;49.024;8.246;2024-02-04T07:16:26;5.47;;;3.42;;
22603;SDS011;11469;49.024;8.246;2024-02-04T07:18:51;4.93;;;3.42;;
22603;SDS011;11469;49.024;8.246;2024-02-04T07:21:17;7.47;;;3.78;;
22603;SDS011;11469;49.024;8.246;2024-02-04T07:23:42;6.72;;;3.80;;
22603;SDS011;11469;49.024;8.246;2024-02-04T07:26:08;5.47;;;3.50;;
22603;SDS011;11469;49.024;8.246;2024-02-04T07:28:34;5.80;;;3.47;;
22603;SDS011;11469;49.024;8.246;2024-02-04T07:30:59;7.40;;;4.00;;
22603;SDS011;11469;49.024;8.246;2024-02-04T07:33:25;5.28;;;3.28;;
22603;SDS011;11469;49.024;8.246;2024-02-04T07:35:50;5.22;;;3.50;;
22603;SDS011;11469;49.024;8.246;2024-02-04T07:38:16;4.20;;;3.15;;
22603;SDS011;11469;49.024;8.246;2024-02-04T07:40:41;4.38;;;3.15;;
22603;SDS011;11469;49.024;8.246;2024-02-04T07:43:07;5.80;;;3.30;;
22603;SDS011;11469;49.024;8.246;2024-02-04T07:45:33;5.53;;;3.25;;
22603;SDS011;11469;49.024;8.246;2024-02-04T07:47:59;3.35;;;2.28;;
22603;SDS011;11469;49.024;8.246;2024-02-04T07:50:24;4.03;;;2.88;;
22603;SDS011;11469;49.024;8.246;2024-02-04T07:52:51;9.32;;;2.72;;
22603;SDS011;11469;49.024;8.246;2024-02-04T07:55:16;3.33;;;2.70;;
22603;SDS011;11469;49.024;8.246;2024-02-04T07:57:42;5.72;;;2.63;;
22603;SDS011;11469;49.024;8.246;2024-02-04T08:00:07;4.35;;;2.58;;
22603;SDS011;11469;49.024;8.246;2024-02-04T08:02:35;4.45;;;2.60;;
22603;SDS011;11469;49.024;8.246;2024-02-04T08:05:02;4.20;;;2.63;;
22603;SDS011;11469;49.024;8.246;2024-02-04T08:07:27;5.25;;;2.90;;
22603;SDS011;11469;49.024;8.246;2024-02-04T08:09:53;3.13;;;2.30;;
22603;SDS011;11469;49.024;8.246;2024-02-04T08:12:18;4.70;;;2.55;;
22603;SDS011;11469;49.024;8.246;2024-02-04T08:14:43;3.88;;;2.25;;
22603;SDS011;11469;49.024;8.246;2024-02-04T08:17:09;4.22;;;2.17;;
22603;SDS011;11469;49.024;8.246;2024-02-04T08:19:34;3.65;;;2.13;;
22603;SDS011;11469;49.024;8.246;2024-02-04T08:22:00;4.13;;;2.22;;
22603;SDS011;11469;49.024;8.246;2024-02-04T08:24:25;2.65;;;1.90;;
22603;SDS011;11469;49.024;8.246;2024-02-04T08:26:51;5.55;;;1.90;;
22603;SDS011;11469;49.024;8.246;2024-02-04T08:29:16;4.10;;;2.08;;
22603;SDS011;11469;49.024;8.246;2024-02-04T08:31:42;3.88;;;2.33;;
22603;SDS011;11469;49.024;8.246;2024-02-04T08:34:07;2.47;;;1.73;;
22603;SDS011;11469;49.024;8.246;2024-02-04T08:36:32;3.47;;;2.00;;
22603;SDS011;11469;49.024;8.246;2024-02-04T08:38:58;3.33;;;2.03;;
22603;SDS011;11469;49.024;8.246;2024-02-04T08:41:23;5.90;;;3.08;;
22603;SDS011;11469;49.024;8.246;2024-02-04T08:43:49;9.13;;;5.00;;
22603;SDS011;11469;49.024;8.246;2024-02-04T08:46:14;4.85;;;2.20;;
22603;SDS011;11469;49.024;8.246;2024-02-04T08:48:40;3.47;;;2.10;;
22603;SDS011;11469;49.024;8.246;2024-02-04T08:51:10;9.57;;;3.50;;
22603;SDS011;11469;49.024;8.246;2024-02-04T08:53:41;5.65;;;2.60;;
22603;SDS011;11469;49.024;8.246;2024-02-04T08:56:07;3.65;;;2.03;;
22603;SDS011;11469;49.024;8.246;2024-02-04T08:58:33;3.50;;;2.22;;
22603;SDS011;11469;49.024;8.246;2024-02-04T09:00:59;3.58;;;1.60;;
22603;SDS011;11469;49.024;8.246;2024-02-04T09:03:24;3.85;;;1.70;;
22603;SDS011;11469;49.024;8.246;2024-02-04T09:05:50;2.50;;;1.80;;
22603;SDS011;11469;49.024;8.246;2024-02-04T09:08:15;2.58;;;1.80;;
22603;SDS011;11469;49.024;8.246;2024-02-04T09:10:41;3.92;;;1.63;;
22603;SDS011;11469;49.024;8.246;2024-02-04T09:13:06;3.85;;;1.90;;
22603;SDS011;11469;49.024;8.246;2024-02-04T09:15:32;3.55;;;2.03;;
22603;SDS011;11469;49.024;8.246;2024-02-04T09:17:57;4.95;;;1.80;;
22603;SDS011;11469;49.024;8.246;2024-02-04T09:20:22;4.70;;;2.63;;
22603;SDS011;11469;49.024;8.246;2024-02-04T09:22:48;6.00;;;2.20;;
22603;SDS011;11469;49.024;8.246;2024-02-04T09:25:13;4.53;;;2.60;;
22603;SDS011;11469;49.024;8.246;2024-02-04T09:27:39;5.15;;;2.15;;
22603;SDS011;11469;49.024;8.246;2024-02-04T09:30:04;4.47;;;2.60;;
22603;SDS011;11469;49.024;8.246;2024-02-04T09:32:31;5.22;;;2.70;;
22603;SDS011;11469;49.024;8.246;2024-02-04T09:34:57;6.68;;;2.17;;
22603;SDS011;11469;49.024;8.246;2024-02-04T09:37:22;3.05;;;2.15;;
22603;SDS011;11469;49.024;8.246;2024-02-04T09:39:47;5.10;;;2.38;;
22603;SDS011;11469;49.024;8.246;2024-02-04T09:42:15;3.22;;;2.00;;
22603;SDS011;11469;49.024;8.246;2024-02-04T09:44:44;4.93;;;2.55;;
22603;SDS011;11469;49.024;8.246;2024-02-04T09:47:11;7.22;;;3.47;;
22603;SDS011;11469;49.024;8.246;2024-02-04T09:49:38;3.50;;;1.90;;
22603;SDS011;11469;49.024;8.246;2024-02-04T09:52:06;5.57;;;2.10;;
22603;SDS011;11469;49.024;8.246;2024-02-04T09:54:34;3.15;;;1.65;;
22603;SDS011;11469;49.024;8.246;2024-02-04T09:57:06;2.03;;;1.20;;
22603;SDS011;11469;49.024;8.246;2024-02-04T09:59:32;2.85;;;1.60;;
22603;SDS011;11469;49.024;8.246;2024-02-04T10:01:58;3.05;;;1.48;;
22603;SDS011;11469;49.024;8.246;2024-02-04T10:04:24;2.60;;;1.40;;
22603;SDS011;11469;49.024;8.246;2024-02-04T10:06:49;2.83;;;1.70;;
22603;SDS011;11469;49.024;8.246;2024-02-04T10:09:15;2.28;;;1.33;;
22603;SDS011;11469;49.024;8.246;2024-02-04T10:11:41;3.28;;;1.30;;
22603;SDS011;11469;49.024;8.246;2024-02-04T10:14:06;2.20;;;1.40;;
22603;SDS011;11469;49.024;8.246;2024-02-04T10:16:32;2.83;;;1.73;;
22603;SDS011;11469;49.024;8.246;2024-02-04T10:19:00;3.08;;;1.52;;
22603;SDS011;11469;49.024;8.246;2024-02-04T10:21:26;3.42;;;1.38;;
22603;SDS011;11469;49.024;8.246;2024-02-04T10:23:51;2.25;;;1.52;;
22603;SDS011;11469;49.024;8.246;2024-02-04T10:26:17;3.33;;;1.30;;
22603;SDS011;11469;49.024;8.246;2024-02-04T10:28:45;6.65;;;1.70;;
22603;SDS011;11469;49.024;8.246;2024-02-04T10:31:11;2.70;;;1.23;;
22603;SDS011;11469;49.024;8.246;2024-02-04T10:33:37;3.00;;;1.48;;
22603;SDS011;11469;49.024;8.246;2024-02-04T10:36:03;1.30;;;1.02;;
22603;SDS011;11469;49.024;8.246;2024-02-04T10:38:29;2.30;;;1.08;;
22603;SDS011;11469;49.024;8.246;2024-02-04T10:40:55;3.47;;;1.15;;
22603;SDS011;11469;49.024;8.246;2024-02-04T10:43:24;3.22;;;1.08;;
22603;SDS011;11469;49.024;8.246;2024-02-04T10:45:56;3.88;;;1.20;;
22603;SDS011;11469;49.024;8.246;2024-02-04T10:48:27;4.03;;;0.82;;
22603;SDS011;11469;49.024;8.246;2024-02-04T10:50:57;1.42;;;0.60;;
22603;SDS011;11469;49.024;8.246;2024-02-04T10:53:24;1.25;;;0.77;;
22603;SDS011;11469;49.024;8.246;2024-02-04T10:55:50;0.90;;;0.70;;
22603;SDS011;11469;49.024;8.246;2024-02-04T10:58:20;2.78;;;1.33;;
22603;SDS011;11469;49.024;8.246;2024-02-04T11:00:48;2.70;;;1.10;;
22603;SDS011;11469;49.024;8.246;2024-02-04T11:03:14;2.53;;;0.88;;
22603;SDS011;11469;49.024;8.246;2024-02-04T11:05:40;2.25;;;0.90;;
22603;SDS011;11469;49.024;8.246;2024-02-04T11:08:07;9.20;;;0.70;;
22603;SDS011;11469;49.024;8.246;2024-02-04T11:10:35;1.63;;;0.73;;
22603;SDS011;11469;49.024;8.246;2024-02-04T11:13:04;2.15;;;0.73;;
22603;SDS011;11469;49.024;8.246;2024-02-04T11:15:35;1.60;;;0.77;;
22603;SDS011;11469;49.024;8.246;2024-02-04T11:18:09;2.08;;;0.70;;
22603;SDS011;11469;49.024;8.246;2024-02-04T11:23:48;2.85;;;0.95;;
22603;SDS011;11469;49.024;8.246;2024-02-04T11:26:34;6.43;;;1.05;;
22603;SDS011;11469;49.024;8.246;2024-02-04T11:29:00;0.90;;;0.57;;
22603;SDS011;11469;49.024;8.246;2024-02-04T11:31:27;2.72;;;0.50;;
22603;SDS011;11469;49.024;8.246;2024-02-04T11:33:54;1.77;;;0.50;;
22603;SDS011;11469;49.024;8.246;2024-02-04T11:36:24;4.95;;;0.80;;
22603;SDS011;11469;49.024;8.246;2024-02-04T11:38:50;3.03;;;1.13;;
22603;SDS011;11469;49.024;8.246;2024-02-04T11:41:23;3.88;;;1.10;;
22603;SDS011;11469;49.024;8.246;2024-02-04T11:43:55;3.13;;;0.65;;
22603;SDS011;11469;49.024;8.246;2024-02-04T11:46:21;5.20;;;0.85;;
22603;SDS011;11469;49.024;8.246;2024-02-04T11:48:53;3.28;;;1.00;;
22603;SDS011;11469;49.024;8.246;2024-02-04T11:51:21;3.08;;;0.77;;
22603;SDS011;11469;49.024;8.246;2024-02-04T11:53:52;1.35;;;0.80;;
22603;SDS011;11469;49.024;8.246;2024-02-04T11:56:18;2.00;;;0.60;;
22603;SDS011;11469;49.024;8.246;2024-02-04T11:58:44;1.05;;;0.63;;
22603;SDS011;11469;49.024;8.246;2024-02-04T12:01:10;2.45;;;1.05;;
22603;SDS011;11469;49.024;8.246;2024-02-04T12:03:36;3.28;;;0.90;;
22603;SDS011;11469;49.024;8.246;2024-02-04T12:06:02;1.77;;;0.70;;
22603;SDS011;11469;49.024;8.246;2024-02-04T12:08:32;2.92;;;0.60;;
22603;SDS011;11469;49.024;8.246;2024-02-04T12:10:59;3.28;;;0.70;;
22603;SDS011;11469;49.024;8.246;2024-02-04T12:13:25;4.13;;;0.70;;
22603;SDS011;11469;49.024;8.246;2024-02-04T12:15:53;4.68;;;0.80;;
22603;SDS011;11469;49.024;8.246;2024-02-04T12:18:19;4.05;;;1.00;;
22603;SDS011;11469;49.024;8.246;2024-02-04T12:20:47;0.90;;;0.52;;
22603;SDS011;11469;49.024;8.246;2024-02-04T12:23:16;1.52;;;0.52;;
22603;SDS011;11469;49.024;8.246;2024-02-04T12:25:43;1.67;;;0.70;;
22603;SDS011;11469;49.024;8.246;2024-02-04T12:28:09;1.10;;;0.50;;
22603;SDS011;11469;49.024;8.246;2024-02-04T12:30:34;1.15;;;0.70;;
22603;SDS011;11469;49.024;8.246;2024-02-04T12:33:03;2.15;;;0.73;;
22603;SDS011;11469;49.024;8.246;2024-02-04T12:35:30;8.45;;;0.85;;
22603;SDS011;11469;49.024;8.246;2024-02-04T12:37:56;3.50;;;0.98;;
22603;SDS011;11469;49.024;8.246;2024-02-04T12:40:23;6.60;;;0.95;;
22603;SDS011;11469;49.024;8.246;2024-02-04T12:42:58;1.15;;;0.50;;
22603;SDS011;11469;49.024;8.246;2024-02-04T12:45:28;2.63;;;0.60;;
22603;SDS011;11469;49.024;8.246;2024-02-04T12:47:55;2.00;;;1.00;;
22603;SDS011;11469;49.024;8.246;2024-02-04T12:50:22;1.90;;;0.90;;
22603;SDS011;11469;49.024;8.246;2024-02-04T12:52:49;2.70;;;1.10;;
22603;SDS011;11469;49.024;8.246;2024-02-04T12:55:29;1.70;;;0.65;;
22603;SDS011;11469;49.024;8.246;2024-02-04T12:58:07;1.50;;;0.70;;
22603;SDS011;11469;49.024;8.246;2024-02-04T13:00:33;3.47;;;0.80;;
22603;SDS011;11469;49.024;8.246;2024-02-04T13:03:00;2.47;;;1.33;;
22603;SDS011;11469;49.024;8.246;2024-02-04T13:05:26;5.00;;;0.80;;
22603;SDS011;11469;49.024;8.246;2024-02-04T13:07:56;2.20;;;0.80;;
22603;SDS011;11469;49.024;8.246;2024-02-04T13:13:05;1.20;;;0.60;;
22603;SDS011;11469;49.024;8.246;2024-02-04T13:15:42;8.65;;;2.10;;
22603;SDS011;11469;49.024;8.246;2024-02-04T13:18:09;3.40;;;1.30;;
22603;SDS011;11469;49.024;8.246;2024-02-04T13:20:40;2.85;;;0.70;;
22603;SDS011;11469;49.024;8.246;2024-02-04T13:23:06;4.95;;;1.90;;
22603;SDS011;11469;49.024;8.246;2024-02-04T13:25:32;1.27;;;0.80;;
22603;SDS011;11469;49.024;8.246;2024-02-04T13:27:58;1.08;;;0.82;;
22603;SDS011;11469;49.024;8.246;2024-02-04T13:30:24;4.32;;;0.90;;
22603;SDS011;11469;49.024;8.246;2024-02-04T13:32:49;1.40;;;0.70;;
22603;SDS011;11469;49.024;8.246;2024-02-04T13:35:15;2.35;;;1.00;;
22603;SDS011;11469;49.024;8.246;2024-02-04T13:37:45;1.48;;;0.88;;
22603;SDS011;11469;49.024;8.246;2024-02-04T13:40:13;11.85;;;2.80;;
22603;SDS011;11469;49.024;8.246;2024-02-04T13:42:39;2.65;;;1.42;;
22603;SDS011;11469;49.024;8.246;2024-02-04T13:45:05;5.05;;;1.27;;
22603;SDS011;11469;49.024;8.246;2024-02-04T13:47:31;1.65;;;0.68;;
22603;SDS011;11469;49.024;8.246;2024-02-04T13:49:56;5.07;;;1.27;;
22603;SDS011;11469;49.024;8.246;2024-02-04T13:52:22;2.17;;;0.90;;
22603;SDS011;11469;49.024;8.246;2024-02-04T13:54:47;1.42;;;0.90;;
22603;SDS011;11469;49.024;8.246;2024-02-04T13:57:13;1.80;;;0.75;;
22603;SDS011;11469;49.024;8.246;2024-02-04T13:59:38;2.38;;;0.90;;
22603;SDS011;11469;49.024;8.246;2024-02-04T14:02:04;2.88;;;1.30;;
22603;SDS011;11469;49.024;8.246;2024-02-04T14:04:30;1.90;;;0.82;;
22603;SDS011;11469;49.024;8.246;2024-02-04T14:06:56;2.10;;;0.85;;
22603;SDS011;11469;49.024;8.246;2024-02-04T14:09:22;1.90;;;1.00;;
22603;SDS011;11469;49.024;8.246;2024-02-04T14:11:47;3.65;;;1.25;;
22603;SDS011;11469;49.024;8.246;2024-02-04T14:14:13;1.45;;;0.80;;
22603;SDS011;11469;49.024;8.246;2024-02-04T14:16:38;2.63;;;0.90;;
22603;SDS011;11469;49.024;8.246;2024-02-04T14:19:04;5.00;;;1.58;;
22603;SDS011;11469;49.024;8.246;2024-02-04T14:21:30;2.35;;;1.48;;
22603;SDS011;11469;49.024;8.246;2024-02-04T14:23:55;7.70;;;1.50;;
22603;SDS011;11469;49.024;8.246;2024-02-04T14:26:21;3.63;;;1.60;;
22603;SDS011;11469;49.024;8.246;2024-02-04T14:28:47;6.82;;;1.40;;
22603;SDS011;11469;49.024;8.246;2024-02-04T14:31:13;6.05;;;1.30;;
22603;SDS011;11469;49.024;8.246;2024-02-04T14:33:38;2.08;;;1.40;;
22603;SDS011;11469;49.024;8.246;2024-02-04T14:36:05;3.13;;;1.25;;
22603;SDS011;11469;49.024;8.246;2024-02-04T14:38:31;10.20;;;4.15;;
22603;SDS011;11469;49.024;8.246;2024-02-04T14:41:00;4.50;;;2.15;;
22603;SDS011;11469;49.024;8.246;2024-02-04T14:43:25;4.30;;;1.60;;
22603;SDS011;11469;49.024;8.246;2024-02-04T14:45:50;3.80;;;1.50;;
22603;SDS011;11469;49.024;8.246;2024-02-04T14:48:16;3.70;;;1.60;;
22603;SDS011;11469;49.024;8.246;2024-02-04T14:50:42;2.67;;;1.55;;